sensor_id;sensor_type;location;lat;lon;timestamp;P1;durP1;ratioP1;P2;durP2;ratioP2
21727;SDS011;11026;50.560;17.852;2023-04-03T00:01:23;8.32;;;3.78;;
21727;SDS011;11026;50.560;17.852;2023-04-03T00:03:52;11.82;;;4.07;;
21727;SDS011;11026;50.560;17.852;2023-04-03T00:06:19;7.05;;;3.80;;
21727;SDS011;11026;50.560;17.852;2023-04-03T00:08:48;7.53;;;3.88;;
21727;SDS011;11026;50.560;17.852;2023-04-03T00:11:16;9.13;;;4.30;;
21727;SDS011;11026;50.560;17.852;2023-04-03T00:13:45;7.05;;;3.53;;
21727;SDS011;11026;50.560;17.852;2023-04-03T00:16:12;8.05;;;4.07;;
21727;SDS011;11026;50.560;17.852;2023-04-03T00:18:39;10.57;;;4.07;;
21727;SDS011;11026;50.560;17.852;2023-04-03T00:21:09;7.57;;;4.20;;
21727;SDS011;11026;50.560;17.852;2023-04-03T00:23:39;9.48;;;3.90;;
21727;SDS011;11026;50.560;17.852;2023-04-03T00:26:07;9.07;;;3.95;;
21727;SDS011;11026;50.560;17.852;2023-04-03T00:28:36;8.52;;;4.25;;
21727;SDS011;11026;50.560;17.852;2023-04-03T00:31:05;10.02;;;4.15;;
21727;SDS011;11026;50.560;17.852;2023-04-03T00:33:32;10.75;;;4.25;;
21727;SDS011;11026;50.560;17.852;2023-04-03T00:36:04;8.85;;;4.40;;
21727;SDS011;11026;50.560;17.852;2023-04-03T00:43:36;8.32;;;3.85;;
21727;SDS011;11026;50.560;17.852;2023-04-03T00:46:04;10.07;;;4.18;;
21727;SDS011;11026;50.560;17.852;2023-04-03T00:48:34;7.82;;;3.60;;
21727;SDS011;11026;50.560;17.852;2023-04-03T00:51:07;8.52;;;4.00;;
21727;SDS011;11026;50.560;17.852;2023-04-03T00:53:43;10.75;;;4.22;;
21727;SDS011;11026;50.560;17.852;2023-04-03T00:56:16;10.30;;;3.80;;
21727;SDS011;11026;50.560;17.852;2023-04-03T00:58:51;9.15;;;4.80;;
21727;SDS011;11026;50.560;17.852;2023-04-03T01:01:40;10.07;;;4.22;;
21727;SDS011;11026;50.560;17.852;2023-04-03T01:07:04;9.88;;;4.32;;
21727;SDS011;11026;50.560;17.852;2023-04-03T01:09:36;7.63;;;3.80;;
21727;SDS011;11026;50.560;17.852;2023-04-03T01:12:15;9.43;;;4.07;;
21727;SDS011;11026;50.560;17.852;2023-04-03T01:14:45;11.48;;;4.28;;
21727;SDS011;11026;50.560;17.852;2023-04-03T01:17:38;8.10;;;4.00;;
21727;SDS011;11026;50.560;17.852;2023-04-03T01:25:23;10.48;;;4.15;;
21727;SDS011;11026;50.560;17.852;2023-04-03T01:27:52;8.18;;;4.18;;
21727;SDS011;11026;50.560;17.852;2023-04-03T01:30:21;13.68;;;4.13;;
21727;SDS011;11026;50.560;17.852;2023-04-03T01:32:54;11.85;;;4.40;;
21727;SDS011;11026;50.560;17.852;2023-04-03T01:35:22;8.48;;;3.53;;
21727;SDS011;11026;50.560;17.852;2023-04-03T01:37:56;11.65;;;4.25;;
21727;SDS011;11026;50.560;17.852;2023-04-03T01:40:24;9.88;;;4.20;;
21727;SDS011;11026;50.560;17.852;2023-04-03T01:42:52;10.18;;;4.03;;
21727;SDS011;11026;50.560;17.852;2023-04-03T01:45:25;10.48;;;4.13;;
21727;SDS011;11026;50.560;17.852;2023-04-03T01:47:53;7.80;;;4.20;;
21727;SDS011;11026;50.560;17.852;2023-04-03T01:50:21;6.55;;;3.90;;
21727;SDS011;11026;50.560;17.852;2023-04-03T01:52:48;12.40;;;4.38;;
21727;SDS011;11026;50.560;17.852;2023-04-03T01:55:18;8.38;;;3.95;;
21727;SDS011;11026;50.560;17.852;2023-04-03T01:57:46;8.20;;;3.70;;
21727;SDS011;11026;50.560;17.852;2023-04-03T02:00:14;10.57;;;4.30;;
21727;SDS011;11026;50.560;17.852;2023-04-03T02:02:41;7.72;;;4.22;;
21727;SDS011;11026;50.560;17.852;2023-04-03T02:05:09;8.90;;;3.90;;
21727;SDS011;11026;50.560;17.852;2023-04-03T02:07:36;7.82;;;4.30;;
21727;SDS011;11026;50.560;17.852;2023-04-03T02:10:03;13.85;;;7.18;;
21727;SDS011;11026;50.560;17.852;2023-04-03T02:12:31;26.27;;;15.27;;
21727;SDS011;11026;50.560;17.852;2023-04-03T02:15:00;18.42;;;8.65;;
21727;SDS011;11026;50.560;17.852;2023-04-03T02:17:34;14.13;;;6.55;;
21727;SDS011;11026;50.560;17.852;2023-04-03T02:20:02;18.60;;;9.80;;
21727;SDS011;11026;50.560;17.852;2023-04-03T02:22:31;37.65;;;18.90;;
21727;SDS011;11026;50.560;17.852;2023-04-03T02:24:59;25.05;;;12.38;;
21727;SDS011;11026;50.560;17.852;2023-04-03T02:27:27;33.55;;;17.95;;
21727;SDS011;11026;50.560;17.852;2023-04-03T02:29:54;22.75;;;12.77;;
21727;SDS011;11026;50.560;17.852;2023-04-03T02:32:22;14.23;;;7.75;;
21727;SDS011;11026;50.560;17.852;2023-04-03T02:34:49;14.00;;;7.95;;
21727;SDS011;11026;50.560;17.852;2023-04-03T02:37:17;9.13;;;4.78;;
21727;SDS011;11026;50.560;17.852;2023-04-03T02:39:44;10.80;;;4.90;;
21727;SDS011;11026;50.560;17.852;2023-04-03T02:42:13;10.93;;;5.35;;
21727;SDS011;11026;50.560;17.852;2023-04-03T02:44:41;10.00;;;5.60;;
21727;SDS011;11026;50.560;17.852;2023-04-03T02:47:08;15.40;;;5.10;;
21727;SDS011;11026;50.560;17.852;2023-04-03T02:49:36;10.18;;;4.30;;
21727;SDS011;11026;50.560;17.852;2023-04-03T02:52:03;10.50;;;4.40;;
21727;SDS011;11026;50.560;17.852;2023-04-03T02:54:32;8.15;;;3.80;;
21727;SDS011;11026;50.560;17.852;2023-04-03T02:56:59;8.85;;;3.95;;
21727;SDS011;11026;50.560;17.852;2023-04-03T02:59:26;9.52;;;4.07;;
21727;SDS011;11026;50.560;17.852;2023-04-03T03:01:54;10.52;;;4.35;;
21727;SDS011;11026;50.560;17.852;2023-04-03T03:04:22;9.05;;;4.40;;
21727;SDS011;11026;50.560;17.852;2023-04-03T03:06:50;13.32;;;4.85;;
21727;SDS011;11026;50.560;17.852;2023-04-03T03:09:19;8.60;;;4.40;;
21727;SDS011;11026;50.560;17.852;2023-04-03T03:11:47;11.27;;;4.40;;
21727;SDS011;11026;50.560;17.852;2023-04-03T03:14:14;10.60;;;4.55;;
21727;SDS011;11026;50.560;17.852;2023-04-03T03:16:42;8.95;;;4.45;;
21727;SDS011;11026;50.560;17.852;2023-04-03T03:19:09;10.07;;;4.30;;
21727;SDS011;11026;50.560;17.852;2023-04-03T03:21:37;9.48;;;4.40;;
21727;SDS011;11026;50.560;17.852;2023-04-03T03:24:04;10.02;;;4.40;;
21727;SDS011;11026;50.560;17.852;2023-04-03T03:26:32;10.05;;;4.30;;
21727;SDS011;11026;50.560;17.852;2023-04-03T03:28:59;10.48;;;4.40;;
21727;SDS011;11026;50.560;17.852;2023-04-03T03:31:27;9.30;;;3.92;;
21727;SDS011;11026;50.560;17.852;2023-04-03T03:33:55;7.75;;;4.68;;
21727;SDS011;11026;50.560;17.852;2023-04-03T03:36:24;8.40;;;4.65;;
21727;SDS011;11026;50.560;17.852;2023-04-03T03:38:51;10.70;;;4.20;;
21727;SDS011;11026;50.560;17.852;2023-04-03T03:41:19;9.82;;;4.20;;
21727;SDS011;11026;50.560;17.852;2023-04-03T03:43:46;10.73;;;4.15;;
21727;SDS011;11026;50.560;17.852;2023-04-03T03:46:14;11.43;;;4.45;;
21727;SDS011;11026;50.560;17.852;2023-04-03T03:48:42;11.35;;;4.90;;
21727;SDS011;11026;50.560;17.852;2023-04-03T03:51:10;9.55;;;4.47;;
21727;SDS011;11026;50.560;17.852;2023-04-03T03:53:39;9.55;;;4.47;;
21727;SDS011;11026;50.560;17.852;2023-04-03T03:56:06;10.30;;;4.65;;
21727;SDS011;11026;50.560;17.852;2023-04-03T03:58:34;10.30;;;4.68;;
21727;SDS011;11026;50.560;17.852;2023-04-03T04:01:02;12.63;;;4.60;;
21727;SDS011;11026;50.560;17.852;2023-04-03T04:03:32;10.23;;;4.45;;
21727;SDS011;11026;50.560;17.852;2023-04-03T04:06:00;12.05;;;4.68;;
21727;SDS011;11026;50.560;17.852;2023-04-03T04:08:28;11.57;;;4.90;;
21727;SDS011;11026;50.560;17.852;2023-04-03T04:11:01;14.35;;;5.35;;
21727;SDS011;11026;50.560;17.852;2023-04-03T04:13:31;14.48;;;4.70;;
21727;SDS011;11026;50.560;17.852;2023-04-03T04:15:59;13.93;;;4.85;;
21727;SDS011;11026;50.560;17.852;2023-04-03T04:18:26;10.38;;;4.60;;
21727;SDS011;11026;50.560;17.852;2023-04-03T04:20:55;10.18;;;4.43;;
21727;SDS011;11026;50.560;17.852;2023-04-03T04:23:22;11.00;;;4.65;;
21727;SDS011;11026;50.560;17.852;2023-04-03T04:25:51;11.45;;;4.57;;
21727;SDS011;11026;50.560;17.852;2023-04-03T04:28:19;13.50;;;4.95;;
21727;SDS011;11026;50.560;17.852;2023-04-03T04:30:48;9.05;;;4.80;;
21727;SDS011;11026;50.560;17.852;2023-04-03T04:33:16;8.82;;;4.72;;
21727;SDS011;11026;50.560;17.852;2023-04-03T04:35:47;11.07;;;4.63;;
21727;SDS011;11026;50.560;17.852;2023-04-03T04:38:15;11.43;;;4.85;;
21727;SDS011;11026;50.560;17.852;2023-04-03T04:40:45;9.10;;;4.50;;
21727;SDS011;11026;50.560;17.852;2023-04-03T04:43:14;10.20;;;4.53;;
21727;SDS011;11026;50.560;17.852;2023-04-03T04:45:43;13.85;;;4.75;;
21727;SDS011;11026;50.560;17.852;2023-04-03T04:48:17;13.30;;;5.00;;
21727;SDS011;11026;50.560;17.852;2023-04-03T04:50:45;10.85;;;4.72;;
21727;SDS011;11026;50.560;17.852;2023-04-03T04:53:13;12.70;;;5.35;;
21727;SDS011;11026;50.560;17.852;2023-04-03T04:55:40;9.80;;;4.53;;
21727;SDS011;11026;50.560;17.852;2023-04-03T04:58:08;14.80;;;5.03;;
21727;SDS011;11026;50.560;17.852;2023-04-03T05:00:36;14.70;;;5.45;;
21727;SDS011;11026;50.560;17.852;2023-04-03T05:03:04;10.52;;;4.90;;
21727;SDS011;11026;50.560;17.852;2023-04-03T05:05:31;16.40;;;5.65;;
21727;SDS011;11026;50.560;17.852;2023-04-03T05:07:59;13.32;;;5.10;;
21727;SDS011;11026;50.560;17.852;2023-04-03T05:10:26;9.80;;;4.90;;
21727;SDS011;11026;50.560;17.852;2023-04-03T05:12:54;9.60;;;5.72;;
21727;SDS011;11026;50.560;17.852;2023-04-03T05:15:21;9.68;;;5.07;;
21727;SDS011;11026;50.560;17.852;2023-04-03T05:17:48;16.02;;;8.15;;
21727;SDS011;11026;50.560;17.852;2023-04-03T05:20:17;11.90;;;5.68;;
21727;SDS011;11026;50.560;17.852;2023-04-03T05:22:44;10.57;;;5.45;;
21727;SDS011;11026;50.560;17.852;2023-04-03T05:25:12;13.80;;;5.78;;
21727;SDS011;11026;50.560;17.852;2023-04-03T05:27:39;14.65;;;5.47;;
21727;SDS011;11026;50.560;17.852;2023-04-03T05:32:40;14.30;;;6.13;;
21727;SDS011;11026;50.560;17.852;2023-04-03T05:35:08;11.45;;;5.20;;
21727;SDS011;11026;50.560;17.852;2023-04-03T05:37:49;14.02;;;5.45;;
21727;SDS011;11026;50.560;17.852;2023-04-03T05:40:18;13.85;;;5.90;;
21727;SDS011;11026;50.560;17.852;2023-04-03T05:42:47;13.70;;;6.00;;
21727;SDS011;11026;50.560;17.852;2023-04-03T05:45:17;15.23;;;6.05;;
21727;SDS011;11026;50.560;17.852;2023-04-03T05:47:44;12.30;;;5.57;;
21727;SDS011;11026;50.560;17.852;2023-04-03T05:50:13;12.10;;;5.85;;
21727;SDS011;11026;50.560;17.852;2023-04-03T05:52:44;11.20;;;5.90;;
21727;SDS011;11026;50.560;17.852;2023-04-03T05:55:15;11.48;;;5.72;;
21727;SDS011;11026;50.560;17.852;2023-04-03T05:57:42;15.68;;;6.32;;
21727;SDS011;11026;50.560;17.852;2023-04-03T06:00:11;11.10;;;5.78;;
21727;SDS011;11026;50.560;17.852;2023-04-03T06:02:42;13.37;;;6.13;;
21727;SDS011;11026;50.560;17.852;2023-04-03T06:05:10;11.00;;;5.75;;
21727;SDS011;11026;50.560;17.852;2023-04-03T06:07:39;11.98;;;5.63;;
21727;SDS011;11026;50.560;17.852;2023-04-03T06:10:07;15.25;;;6.50;;
21727;SDS011;11026;50.560;17.852;2023-04-03T06:12:35;9.70;;;5.00;;
21727;SDS011;11026;50.560;17.852;2023-04-03T06:15:03;11.65;;;5.60;;
21727;SDS011;11026;50.560;17.852;2023-04-03T06:17:33;12.18;;;5.88;;
21727;SDS011;11026;50.560;17.852;2023-04-03T06:20:07;11.25;;;5.75;;
21727;SDS011;11026;50.560;17.852;2023-04-03T06:22:36;13.23;;;5.93;;
21727;SDS011;11026;50.560;17.852;2023-04-03T06:25:04;11.82;;;6.05;;
21727;SDS011;11026;50.560;17.852;2023-04-03T06:27:34;12.20;;;5.85;;
21727;SDS011;11026;50.560;17.852;2023-04-03T06:30:04;17.10;;;7.00;;
21727;SDS011;11026;50.560;17.852;2023-04-03T06:32:32;10.70;;;5.55;;
21727;SDS011;11026;50.560;17.852;2023-04-03T06:35:01;11.40;;;5.45;;
21727;SDS011;11026;50.560;17.852;2023-04-03T06:37:30;10.80;;;5.72;;
21727;SDS011;11026;50.560;17.852;2023-04-03T06:39:58;11.23;;;6.45;;
21727;SDS011;11026;50.560;17.852;2023-04-03T06:42:33;10.27;;;5.60;;
21727;SDS011;11026;50.560;17.852;2023-04-03T06:47:29;11.60;;;7.03;;
21727;SDS011;11026;50.560;17.852;2023-04-03T06:49:56;10.93;;;5.90;;
21727;SDS011;11026;50.560;17.852;2023-04-03T06:52:30;8.27;;;5.65;;
21727;SDS011;11026;50.560;17.852;2023-04-03T06:54:58;11.07;;;6.53;;
21727;SDS011;11026;50.560;17.852;2023-04-03T06:57:26;13.15;;;6.45;;
21727;SDS011;11026;50.560;17.852;2023-04-03T06:59:53;11.02;;;6.65;;
21727;SDS011;11026;50.560;17.852;2023-04-03T07:02:20;9.65;;;6.50;;
21727;SDS011;11026;50.560;17.852;2023-04-03T07:04:49;12.13;;;7.57;;
21727;SDS011;11026;50.560;17.852;2023-04-03T07:07:18;11.35;;;7.05;;
21727;SDS011;11026;50.560;17.852;2023-04-03T07:09:45;13.15;;;6.68;;
21727;SDS011;11026;50.560;17.852;2023-04-03T07:12:15;12.57;;;7.00;;
21727;SDS011;11026;50.560;17.852;2023-04-03T07:14:43;12.13;;;7.47;;
21727;SDS011;11026;50.560;17.852;2023-04-03T07:17:11;12.55;;;7.35;;
21727;SDS011;11026;50.560;17.852;2023-04-03T07:19:39;8.90;;;7.07;;
21727;SDS011;11026;50.560;17.852;2023-04-03T07:22:08;10.63;;;6.28;;
21727;SDS011;11026;50.560;17.852;2023-04-03T07:24:38;12.57;;;7.18;;
21727;SDS011;11026;50.560;17.852;2023-04-03T07:27:06;12.68;;;6.63;;
21727;SDS011;11026;50.560;17.852;2023-04-03T07:29:35;12.00;;;6.10;;
21727;SDS011;11026;50.560;17.852;2023-04-03T07:32:02;9.80;;;5.90;;
21727;SDS011;11026;50.560;17.852;2023-04-03T07:34:31;15.35;;;6.07;;
21727;SDS011;11026;50.560;17.852;2023-04-03T07:37:01;10.95;;;5.50;;
21727;SDS011;11026;50.560;17.852;2023-04-03T07:39:29;9.68;;;7.22;;
21727;SDS011;11026;50.560;17.852;2023-04-03T07:41:56;13.10;;;8.70;;
21727;SDS011;11026;50.560;17.852;2023-04-03T07:44:23;9.85;;;6.05;;
21727;SDS011;11026;50.560;17.852;2023-04-03T07:46:51;10.20;;;5.45;;
21727;SDS011;11026;50.560;17.852;2023-04-03T07:49:25;11.23;;;6.07;;
21727;SDS011;11026;50.560;17.852;2023-04-03T07:51:53;9.30;;;4.72;;
21727;SDS011;11026;50.560;17.852;2023-04-03T07:54:21;9.65;;;4.82;;
21727;SDS011;11026;50.560;17.852;2023-04-03T07:56:48;9.38;;;4.82;;
21727;SDS011;11026;50.560;17.852;2023-04-03T07:59:16;11.02;;;4.68;;
21727;SDS011;11026;50.560;17.852;2023-04-03T08:01:43;8.68;;;4.57;;
21727;SDS011;11026;50.560;17.852;2023-04-03T08:04:11;6.80;;;3.55;;
21727;SDS011;11026;50.560;17.852;2023-04-03T08:06:40;6.68;;;4.47;;
21727;SDS011;11026;50.560;17.852;2023-04-03T08:09:13;6.70;;;4.38;;
21727;SDS011;11026;50.560;17.852;2023-04-03T08:11:42;9.30;;;4.85;;
21727;SDS011;11026;50.560;17.852;2023-04-03T08:14:09;9.65;;;4.60;;
21727;SDS011;11026;50.560;17.852;2023-04-03T08:19:12;6.47;;;3.80;;
21727;SDS011;11026;50.560;17.852;2023-04-03T08:21:58;9.43;;;4.78;;
21727;SDS011;11026;50.560;17.852;2023-04-03T08:24:27;9.73;;;4.45;;
21727;SDS011;11026;50.560;17.852;2023-04-03T08:26:54;8.02;;;3.88;;
21727;SDS011;11026;50.560;17.852;2023-04-03T08:29:22;6.70;;;3.47;;
21727;SDS011;11026;50.560;17.852;2023-04-03T08:31:50;8.10;;;3.92;;
21727;SDS011;11026;50.560;17.852;2023-04-03T08:34:17;7.20;;;4.18;;
21727;SDS011;11026;50.560;17.852;2023-04-03T08:36:46;7.22;;;4.03;;
21727;SDS011;11026;50.560;17.852;2023-04-03T08:39:13;6.15;;;3.70;;
21727;SDS011;11026;50.560;17.852;2023-04-03T08:41:44;6.68;;;3.40;;
21727;SDS011;11026;50.560;17.852;2023-04-03T08:44:26;6.60;;;3.80;;
21727;SDS011;11026;50.560;17.852;2023-04-03T08:49:53;6.97;;;3.30;;
21727;SDS011;11026;50.560;17.852;2023-04-03T08:52:32;6.72;;;4.43;;
21727;SDS011;11026;50.560;17.852;2023-04-03T08:55:06;6.47;;;3.55;;
21727;SDS011;11026;50.560;17.852;2023-04-03T08:57:43;5.53;;;3.53;;
21727;SDS011;11026;50.560;17.852;2023-04-03T09:02:48;7.25;;;4.00;;
21727;SDS011;11026;50.560;17.852;2023-04-03T09:10:57;5.47;;;2.73;;
21727;SDS011;11026;50.560;17.852;2023-04-03T09:22:00;4.93;;;2.72;;
21727;SDS011;11026;50.560;17.852;2023-04-03T09:24:47;5.63;;;2.50;;
21727;SDS011;11026;50.560;17.852;2023-04-03T09:27:23;5.18;;;2.33;;
21727;SDS011;11026;50.560;17.852;2023-04-03T09:29:52;4.60;;;2.25;;
21727;SDS011;11026;50.560;17.852;2023-04-03T09:35:03;5.28;;;2.30;;
21727;SDS011;11026;50.560;17.852;2023-04-03T09:38:00;4.25;;;2.60;;
21727;SDS011;11026;50.560;17.852;2023-04-03T09:40:38;5.15;;;2.88;;
21727;SDS011;11026;50.560;17.852;2023-04-03T09:45:56;9.30;;;4.97;;
21727;SDS011;11026;50.560;17.852;2023-04-03T09:48:50;4.05;;;2.80;;
21727;SDS011;11026;50.560;17.852;2023-04-03T09:51:34;5.25;;;2.45;;
21727;SDS011;11026;50.560;17.852;2023-04-03T09:54:03;3.05;;;2.42;;
21727;SDS011;11026;50.560;17.852;2023-04-03T09:57:06;7.38;;;2.80;;
21727;SDS011;11026;50.560;17.852;2023-04-03T09:59:39;3.97;;;2.50;;
21727;SDS011;11026;50.560;17.852;2023-04-03T10:04:59;4.70;;;2.55;;
21727;SDS011;11026;50.560;17.852;2023-04-03T10:07:34;9.70;;;4.47;;
21727;SDS011;11026;50.560;17.852;2023-04-03T10:12:44;4.90;;;2.50;;
21727;SDS011;11026;50.560;17.852;2023-04-03T10:15:16;5.63;;;3.15;;
21727;SDS011;11026;50.560;17.852;2023-04-03T10:17:56;4.18;;;2.40;;
21727;SDS011;11026;50.560;17.852;2023-04-03T10:20:44;5.68;;;2.75;;
21727;SDS011;11026;50.560;17.852;2023-04-03T10:28:47;5.05;;;2.10;;
21727;SDS011;11026;50.560;17.852;2023-04-03T10:31:22;4.68;;;2.35;;
21727;SDS011;11026;50.560;17.852;2023-04-03T10:33:52;4.85;;;2.55;;
21727;SDS011;11026;50.560;17.852;2023-04-03T10:36:39;4.82;;;3.47;;
21727;SDS011;11026;50.560;17.852;2023-04-03T10:39:28;5.15;;;4.45;;
21727;SDS011;11026;50.560;17.852;2023-04-03T10:50:44;5.80;;;2.95;;
21727;SDS011;11026;50.560;17.852;2023-04-03T10:53:43;5.80;;;3.15;;
21727;SDS011;11026;50.560;17.852;2023-04-03T10:56:21;5.93;;;2.53;;
21727;SDS011;11026;50.560;17.852;2023-04-03T11:05:17;5.72;;;3.13;;
21727;SDS011;11026;50.560;17.852;2023-04-03T11:07:53;4.88;;;3.03;;
21727;SDS011;11026;50.560;17.852;2023-04-03T11:10:26;4.82;;;2.42;;
21727;SDS011;11026;50.560;17.852;2023-04-03T11:13:21;5.88;;;2.88;;
21727;SDS011;11026;50.560;17.852;2023-04-03T11:16:13;4.65;;;2.40;;
21727;SDS011;11026;50.560;17.852;2023-04-03T11:18:50;4.82;;;2.80;;
21727;SDS011;11026;50.560;17.852;2023-04-03T11:24:27;4.82;;;2.50;;
21727;SDS011;11026;50.560;17.852;2023-04-03T11:26:58;3.80;;;2.30;;
21727;SDS011;11026;50.560;17.852;2023-04-03T11:35:05;16.02;;;7.68;;
21727;SDS011;11026;50.560;17.852;2023-04-03T11:37:39;4.68;;;3.00;;
21727;SDS011;11026;50.560;17.852;2023-04-03T11:40:08;5.07;;;3.22;;
21727;SDS011;11026;50.560;17.852;2023-04-03T11:50:56;3.70;;;2.03;;
21727;SDS011;11026;50.560;17.852;2023-04-03T11:53:32;5.30;;;2.40;;
21727;SDS011;11026;50.560;17.852;2023-04-03T12:01:43;5.43;;;2.47;;
21727;SDS011;11026;50.560;17.852;2023-04-03T12:04:14;5.70;;;2.70;;
21727;SDS011;11026;50.560;17.852;2023-04-03T12:11:58;5.43;;;2.58;;
21727;SDS011;11026;50.560;17.852;2023-04-03T12:14:27;4.97;;;2.47;;
21727;SDS011;11026;50.560;17.852;2023-04-03T12:16:56;6.28;;;2.80;;
21727;SDS011;11026;50.560;17.852;2023-04-03T12:22:05;3.90;;;2.50;;
21727;SDS011;11026;50.560;17.852;2023-04-03T12:24:37;5.32;;;3.28;;
21727;SDS011;11026;50.560;17.852;2023-04-03T12:27:55;5.13;;;2.17;;
21727;SDS011;11026;50.560;17.852;2023-04-03T12:30:11;6.57;;;2.65;;
21727;SDS011;11026;50.560;17.852;2023-04-03T12:46:03;4.68;;;2.83;;
21727;SDS011;11026;50.560;17.852;2023-04-03T12:48:47;4.32;;;2.15;;
21727;SDS011;11026;50.560;17.852;2023-04-03T12:51:42;3.63;;;2.42;;
21727;SDS011;11026;50.560;17.852;2023-04-03T12:57:16;3.75;;;2.53;;
21727;SDS011;11026;50.560;17.852;2023-04-03T12:59:54;4.75;;;2.85;;
21727;SDS011;11026;50.560;17.852;2023-04-03T13:02:27;5.40;;;3.00;;
21727;SDS011;11026;50.560;17.852;2023-04-03T13:04:58;4.65;;;3.03;;
21727;SDS011;11026;50.560;17.852;2023-04-03T13:07:37;6.22;;;2.70;;
21727;SDS011;11026;50.560;17.852;2023-04-03T13:12:35;3.40;;;2.53;;
21727;SDS011;11026;50.560;17.852;2023-04-03T13:15:29;4.35;;;2.30;;
21727;SDS011;11026;50.560;17.852;2023-04-03T13:18:21;6.25;;;2.80;;
21727;SDS011;11026;50.560;17.852;2023-04-03T13:21:03;5.75;;;2.38;;
21727;SDS011;11026;50.560;17.852;2023-04-03T13:23:35;4.30;;;2.50;;
21727;SDS011;11026;50.560;17.852;2023-04-03T13:26:05;5.18;;;2.78;;
21727;SDS011;11026;50.560;17.852;2023-04-03T13:28:33;8.20;;;4.13;;
21727;SDS011;11026;50.560;17.852;2023-04-03T13:33:54;3.42;;;2.50;;
21727;SDS011;11026;50.560;17.852;2023-04-03T13:36:27;4.72;;;2.70;;
21727;SDS011;11026;50.560;17.852;2023-04-03T13:39:06;5.17;;;2.57;;
21727;SDS011;11026;50.560;17.852;2023-04-03T13:41:46;2.88;;;2.17;;
21727;SDS011;11026;50.560;17.852;2023-04-03T13:44:27;3.53;;;2.67;;
21727;SDS011;11026;50.560;17.852;2023-04-03T13:49:40;7.07;;;2.97;;
21727;SDS011;11026;50.560;17.852;2023-04-03T13:54:59;4.53;;;3.20;;
21727;SDS011;11026;50.560;17.852;2023-04-03T13:57:33;5.25;;;2.72;;
21727;SDS011;11026;50.560;17.852;2023-04-03T14:00:18;11.90;;;6.72;;
21727;SDS011;11026;50.560;17.852;2023-04-03T14:02:47;16.58;;;8.38;;
21727;SDS011;11026;50.560;17.852;2023-04-03T14:05:15;7.10;;;3.50;;
21727;SDS011;11026;50.560;17.852;2023-04-03T14:07:44;6.50;;;3.47;;
21727;SDS011;11026;50.560;17.852;2023-04-03T14:10:13;5.38;;;3.00;;
21727;SDS011;11026;50.560;17.852;2023-04-03T14:12:41;5.10;;;2.88;;
21727;SDS011;11026;50.560;17.852;2023-04-03T14:15:22;8.02;;;3.50;;
21727;SDS011;11026;50.560;17.852;2023-04-03T14:17:52;17.42;;;7.75;;
21727;SDS011;11026;50.560;17.852;2023-04-03T14:20:22;15.20;;;6.50;;
21727;SDS011;11026;50.560;17.852;2023-04-03T14:22:53;6.38;;;4.10;;
21727;SDS011;11026;50.560;17.852;2023-04-03T14:25:21;6.82;;;3.58;;
21727;SDS011;11026;50.560;17.852;2023-04-03T14:27:56;5.25;;;3.15;;
21727;SDS011;11026;50.560;17.852;2023-04-03T14:30:26;14.20;;;4.93;;
21727;SDS011;11026;50.560;17.852;2023-04-03T14:32:55;4.90;;;3.05;;
21727;SDS011;11026;50.560;17.852;2023-04-03T14:35:25;5.47;;;3.38;;
21727;SDS011;11026;50.560;17.852;2023-04-03T14:37:54;13.52;;;6.22;;
21727;SDS011;11026;50.560;17.852;2023-04-03T14:40:23;5.07;;;3.80;;
21727;SDS011;11026;50.560;17.852;2023-04-03T14:42:53;5.32;;;4.13;;
21727;SDS011;11026;50.560;17.852;2023-04-03T14:45:22;7.22;;;3.35;;
21727;SDS011;11026;50.560;17.852;2023-04-03T14:47:56;10.10;;;5.47;;
21727;SDS011;11026;50.560;17.852;2023-04-03T14:50:28;9.05;;;5.00;;
21727;SDS011;11026;50.560;17.852;2023-04-03T14:52:56;7.03;;;4.20;;
21727;SDS011;11026;50.560;17.852;2023-04-03T14:55:31;5.75;;;3.17;;
21727;SDS011;11026;50.560;17.852;2023-04-03T14:57:59;4.97;;;3.08;;
21727;SDS011;11026;50.560;17.852;2023-04-03T15:00:26;4.10;;;3.10;;
21727;SDS011;11026;50.560;17.852;2023-04-03T15:02:53;7.53;;;4.63;;
21727;SDS011;11026;50.560;17.852;2023-04-03T15:05:21;8.40;;;3.47;;
21727;SDS011;11026;50.560;17.852;2023-04-03T15:10:29;9.95;;;4.85;;
21727;SDS011;11026;50.560;17.852;2023-04-03T15:12:58;7.28;;;5.60;;
21727;SDS011;11026;50.560;17.852;2023-04-03T15:15:28;8.93;;;5.35;;
21727;SDS011;11026;50.560;17.852;2023-04-03T15:18:03;7.25;;;5.00;;
21727;SDS011;11026;50.560;17.852;2023-04-03T15:20:31;10.55;;;7.80;;
21727;SDS011;11026;50.560;17.852;2023-04-03T15:23:01;6.78;;;4.05;;
21727;SDS011;11026;50.560;17.852;2023-04-03T15:25:31;7.05;;;3.35;;
21727;SDS011;11026;50.560;17.852;2023-04-03T15:27:59;13.15;;;7.88;;
21727;SDS011;11026;50.560;17.852;2023-04-03T15:30:27;11.10;;;5.40;;
21727;SDS011;11026;50.560;17.852;2023-04-03T15:32:55;26.05;;;14.65;;
21727;SDS011;11026;50.560;17.852;2023-04-03T15:35:23;66.60;;;33.70;;
21727;SDS011;11026;50.560;17.852;2023-04-03T15:37:58;41.13;;;22.05;;
21727;SDS011;11026;50.560;17.852;2023-04-03T15:40:25;39.83;;;25.08;;
21727;SDS011;11026;50.560;17.852;2023-04-03T15:42:54;22.08;;;16.95;;
21727;SDS011;11026;50.560;17.852;2023-04-03T15:45:28;13.02;;;8.88;;
21727;SDS011;11026;50.560;17.852;2023-04-03T15:47:57;6.07;;;3.92;;
21727;SDS011;11026;50.560;17.852;2023-04-03T15:50:25;7.10;;;4.07;;
21727;SDS011;11026;50.560;17.852;2023-04-03T15:52:52;23.45;;;13.65;;
21727;SDS011;11026;50.560;17.852;2023-04-03T15:55:24;9.02;;;4.90;;
21727;SDS011;11026;50.560;17.852;2023-04-03T15:57:55;12.05;;;7.25;;
21727;SDS011;11026;50.560;17.852;2023-04-03T16:00:25;18.77;;;11.85;;
21727;SDS011;11026;50.560;17.852;2023-04-03T16:02:55;24.80;;;12.75;;
21727;SDS011;11026;50.560;17.852;2023-04-03T16:05:28;17.13;;;7.72;;
21727;SDS011;11026;50.560;17.852;2023-04-03T16:07:55;14.52;;;8.52;;
21727;SDS011;11026;50.560;17.852;2023-04-03T16:10:24;25.75;;;14.57;;
21727;SDS011;11026;50.560;17.852;2023-04-03T16:12:52;34.47;;;17.50;;
21727;SDS011;11026;50.560;17.852;2023-04-03T16:15:19;36.05;;;17.77;;
21727;SDS011;11026;50.560;17.852;2023-04-03T16:17:47;39.63;;;17.67;;
21727;SDS011;11026;50.560;17.852;2023-04-03T16:20:16;35.08;;;16.02;;
21727;SDS011;11026;50.560;17.852;2023-04-03T16:22:45;47.20;;;18.77;;
21727;SDS011;11026;50.560;17.852;2023-04-03T16:25:12;60.28;;;24.85;;
21727;SDS011;11026;50.560;17.852;2023-04-03T16:27:40;69.18;;;28.23;;
21727;SDS011;11026;50.560;17.852;2023-04-03T16:30:09;69.25;;;28.70;;
21727;SDS011;11026;50.560;17.852;2023-04-03T16:32:39;64.32;;;26.65;;
21727;SDS011;11026;50.560;17.852;2023-04-03T16:35:07;42.90;;;19.55;;
21727;SDS011;11026;50.560;17.852;2023-04-03T16:37:40;16.80;;;9.63;;
21727;SDS011;11026;50.560;17.852;2023-04-03T16:40:07;57.53;;;22.58;;
21727;SDS011;11026;50.560;17.852;2023-04-03T16:42:36;36.53;;;15.85;;
21727;SDS011;11026;50.560;17.852;2023-04-03T16:45:06;26.67;;;11.52;;
21727;SDS011;11026;50.560;17.852;2023-04-03T16:47:34;22.73;;;10.10;;
21727;SDS011;11026;50.560;17.852;2023-04-03T16:50:01;79.70;;;29.27;;
21727;SDS011;11026;50.560;17.852;2023-04-03T16:52:29;113.03;;;40.38;;
21727;SDS011;11026;50.560;17.852;2023-04-03T16:54:57;43.78;;;18.40;;
21727;SDS011;11026;50.560;17.852;2023-04-03T16:57:25;81.22;;;31.65;;
21727;SDS011;11026;50.560;17.852;2023-04-03T16:59:53;69.85;;;28.92;;